SEGZ

Gualaquiza Airport

Airport
ICAO code
SEGZ
Summary
ICAO Region
CARSAM
ICAO Territory
Location

, Morona-Santiago

Serving
Gualaquiza
Elevation
2640 ft
Coordinates
3° 25' 24" S , 78° 34' 1" W
Metar
Observation
SEGZ 062100Z 04004KT 9999 FEW023CB SCT026 32/23 Q1008 RETS
Station
Gualaquiza
Date/Time
2022-10-06 21:00:00
Wind direction
40°
Wind speed
04 kts
Lowest cloud amount
few clouds
Temperature
32°C
Dew point
23°C
Humidity
59%
QNH
1008 hPa
Weather condition
n/a

Runways

Designator Length Width Surface Rops
15/33 2012 26 ASP No/No

Airport map

Aerial View

SKYbrary Partners:

Safety knowledge contributed by: